Time;durP1;ratioP1;P1;durP2;ratioP2;P2;SDS_P1;SDS_P2;PMS_P1;PMS_P2;Temp;Humidity;BMP_temperature;BMP_pressure;BME280_temperature;BME280_humidity;BME280_pressure;Samples;Min_cycle;Max_cycle;Signal;HPM_P1;HPM_P2
2022/04/09 00:00:24;;;;;;;13.98;2.45;;;;;;;;;;5077830;28;20086;-75
2022/04/09 00:02:50;;;;;;;5.35;1.65;;;;;;;;;;5094306;28;20031;-75
2022/04/09 00:05:15;;;;;;;8.60;2.25;;;;;;;;;;5094161;28;20024;-74
2022/04/09 00:07:42;;;;;;;6.65;1.77;;;;;;;;;;5076318;28;20312;-75
2022/04/09 00:10:09;;;;;;;4.72;1.92;;;;;;;;;;5081665;28;20023;-74
2022/04/09 00:12:34;;;;;;;9.23;2.17;;;;;;;;;;5063099;28;20312;-75
2022/04/09 00:15:00;;;;;;;8.75;2.45;;;;;;;;;;5087017;28;20044;-72
2022/04/09 00:17:26;;;;;;;11.10;2.80;;;;;;;;;;5077211;28;22528;-75
2022/04/09 00:19:52;;;;;;;11.38;2.63;;;;;;;;;;5079191;28;20020;-74
2022/04/09 00:22:18;;;;;;;6.03;1.55;;;;;;;;;;5063397;28;20044;-75
2022/04/09 00:24:44;;;;;;;6.78;2.00;;;;;;;;;;5058741;28;20017;-74
2022/04/09 00:27:09;;;;;;;12.40;1.60;;;;;;;;;;5074168;28;20037;-74
2022/04/09 00:29:35;;;;;;;5.53;2.03;;;;;;;;;;5077159;28;20206;-75
2022/04/09 00:32:01;;;;;;;6.10;1.75;;;;;;;;;;5080492;28;20202;-75
2022/04/09 00:34:26;;;;;;;9.25;2.15;;;;;;;;;;5077096;28;20114;-75
2022/04/09 00:36:52;;;;;;;9.52;1.80;;;;;;;;;;5058440;28;20021;-74
2022/04/09 00:39:18;;;;;;;4.55;1.55;;;;;;;;;;5074265;28;20042;-75
2022/04/09 00:41:47;;;;;;;5.65;1.75;;;;;;;;;;5063482;28;20024;-74
2022/04/09 00:44:17;;;;;;;9.90;2.03;;;;;;;;;;5077506;28;20024;-74
2022/04/09 00:46:43;;;;;;;6.22;1.60;;;;;;;;;;5082365;28;20024;-75
2022/04/09 00:49:09;;;;;;;6.80;1.45;;;;;;;;;;5077163;28;20020;-74
2022/04/09 00:51:37;;;;;;;6.60;2.10;;;;;;;;;;5076572;28;20025;-75
2022/04/09 00:54:05;;;;;;;7.43;1.85;;;;;;;;;;5082299;28;20163;-75
2022/04/09 00:56:33;;;;;;;6.00;1.65;;;;;;;;;;5079694;28;20012;-75
2022/04/09 00:59:02;;;;;;;6.05;1.60;;;;;;;;;;5079269;28;20016;-75
2022/04/09 01:01:28;;;;;;;11.80;1.95;;;;;;;;;;5077294;28;20107;-75
2022/04/09 01:03:55;;;;;;;7.13;1.35;;;;;;;;;;5077578;28;20023;-75
2022/04/09 01:06:21;;;;;;;5.53;1.50;;;;;;;;;;5094450;28;20070;-75
2022/04/09 01:08:47;;;;;;;4.97;1.40;;;;;;;;;;5079904;28;20056;-75
2022/04/09 01:11:13;;;;;;;5.93;1.33;;;;;;;;;;5075609;28;20031;-75
2022/04/09 01:13:40;;;;;;;10.45;1.52;;;;;;;;;;5081647;28;20083;-75
2022/04/09 01:16:05;;;;;;;5.47;1.42;;;;;;;;;;5083388;28;20270;-75
2022/04/09 01:18:33;;;;;;;13.10;1.58;;;;;;;;;;5061527;28;20087;-75
2022/04/09 01:21:02;;;;;;;14.82;1.80;;;;;;;;;;5080862;28;20079;-74
2022/04/09 01:23:28;;;;;;;8.60;1.35;;;;;;;;;;5079824;28;20021;-74
2022/04/09 01:25:57;;;;;;;6.47;1.80;;;;;;;;;;5079373;28;20023;-74
2022/04/09 01:28:22;;;;;;;5.45;1.20;;;;;;;;;;5063945;28;20027;-74
2022/04/09 01:30:48;;;;;;;10.80;1.95;;;;;;;;;;5080423;28;20024;-75
2022/04/09 01:33:17;;;;;;;7.85;2.15;;;;;;;;;;5085128;28;20088;-75
2022/04/09 01:35:44;;;;;;;8.02;2.03;;;;;;;;;;5075968;28;20024;-74
2022/04/09 01:38:09;;;;;;;9.30;1.25;;;;;;;;;;5059048;28;20036;-75
2022/04/09 01:40:35;;;;;;;9.32;1.42;;;;;;;;;;5081229;28;20298;-75
2022/04/09 01:43:00;;;;;;;11.68;1.35;;;;;;;;;;5075949;28;20020;-75
2022/04/09 01:45:27;;;;;;;3.40;1.35;;;;;;;;;;5081623;28;20012;-74
2022/04/09 01:47:54;;;;;;;8.95;1.90;;;;;;;;;;5076470;28;20040;-75
2022/04/09 01:50:21;;;;;;;9.55;1.85;;;;;;;;;;5093379;28;20009;-76
2022/04/09 01:52:47;;;;;;;14.80;1.67;;;;;;;;;;5077899;28;20013;-75
2022/04/09 01:55:13;;;;;;;12.35;2.20;;;;;;;;;;5077681;28;20146;-75
2022/04/09 01:57:39;;;;;;;10.93;1.88;;;;;;;;;;5062498;28;20068;-75
2022/04/09 02:00:07;;;;;;;6.70;1.80;;;;;;;;;;5078085;28;20269;-75
2022/04/09 02:02:33;;;;;;;9.95;1.42;;;;;;;;;;5078020;28;20027;-74
2022/04/09 02:04:58;;;;;;;7.05;1.60;;;;;;;;;;5079720;28;20243;-75
2022/04/09 02:07:24;;;;;;;12.77;1.90;;;;;;;;;;5078768;28;20024;-75
2022/04/09 02:09:49;;;;;;;9.80;1.80;;;;;;;;;;5079349;28;20024;-75
2022/04/09 02:12:15;;;;;;;4.30;1.45;;;;;;;;;;5065396;28;20270;-73
2022/04/09 02:14:41;;;;;;;6.05;1.60;;;;;;;;;;5082360;28;20259;-73
2022/04/09 02:17:07;;;;;;;6.88;1.67;;;;;;;;;;5046956;28;20044;-72
2022/04/09 02:19:32;;;;;;;5.00;1.60;;;;;;;;;;5078205;28;20020;-73
2022/04/09 02:21:57;;;;;;;4.90;1.70;;;;;;;;;;5060449;28;20032;-73
2022/04/09 02:24:23;;;;;;;10.07;2.28;;;;;;;;;;5080963;28;20020;-73
2022/04/09 02:26:48;;;;;;;8.75;1.85;;;;;;;;;;5079586;28;20171;-74
2022/04/09 02:29:14;;;;;;;10.38;2.10;;;;;;;;;;5076931;28;20020;-73
2022/04/09 02:31:39;;;;;;;5.78;1.27;;;;;;;;;;5061987;28;20218;-73
2022/04/09 02:34:05;;;;;;;11.20;2.08;;;;;;;;;;5079972;28;20339;-75
2022/04/09 02:36:32;;;;;;;10.95;1.85;;;;;;;;;;5062659;28;20138;-73
2022/04/09 02:38:58;;;;;;;10.55;1.67;;;;;;;;;;5078142;28;20048;-73
2022/04/09 02:41:24;;;;;;;4.90;1.80;;;;;;;;;;5095465;28;20270;-72
2022/04/09 02:43:49;;;;;;;9.90;2.30;;;;;;;;;;5077906;28;20039;-73
2022/04/09 02:46:16;;;;;;;6.93;1.90;;;;;;;;;;5076540;28;20245;-73
2022/04/09 02:48:42;;;;;;;8.05;1.50;;;;;;;;;;5077370;28;20024;-73
2022/04/09 02:51:07;;;;;;;7.43;1.63;;;;;;;;;;5079037;28;20027;-73
2022/04/09 02:53:33;;;;;;;9.45;2.08;;;;;;;;;;5061619;28;20212;-74
2022/04/09 02:55:58;;;;;;;9.50;1.92;;;;;;;;;;5061651;28;20044;-73
2022/04/09 02:58:24;;;;;;;7.15;1.88;;;;;;;;;;5078837;28;20050;-74
2022/04/09 03:00:49;;;;;;;6.75;2.30;;;;;;;;;;5077929;28;20052;-73
2022/04/09 03:03:15;;;;;;;8.93;1.67;;;;;;;;;;5061366;28;20013;-75
2022/04/09 03:05:40;;;;;;;23.02;2.15;;;;;;;;;;5077551;28;20052;-73
2022/04/09 03:08:06;;;;;;;10.05;2.83;;;;;;;;;;5083451;28;20020;-73
2022/04/09 03:10:31;;;;;;;7.72;2.10;;;;;;;;;;5075846;28;20020;-74
2022/04/09 03:12:58;;;;;;;11.80;1.90;;;;;;;;;;5063393;28;20021;-74
2022/04/09 03:15:24;;;;;;;8.00;3.55;;;;;;;;;;5063036;28;20051;-73
2022/04/09 03:17:49;;;;;;;11.38;2.08;;;;;;;;;;5073450;28;20014;-72
2022/04/09 03:20:15;;;;;;;10.93;2.10;;;;;;;;;;5062813;28;20174;-72
2022/04/09 03:22:48;;;;;;;9.82;2.42;;;;;;;;;;5076322;28;20280;-73
2022/04/09 03:25:13;;;;;;;9.57;2.30;;;;;;;;;;5076893;28;20183;-73
2022/04/09 03:27:39;;;;;;;13.15;2.00;;;;;;;;;;5065292;28;20036;-73
2022/04/09 03:30:06;;;;;;;10.57;2.08;;;;;;;;;;5063726;28;20318;-73
2022/04/09 03:32:32;;;;;;;3.58;1.08;;;;;;;;;;5040453;28;20051;-73
2022/04/09 03:34:57;;;;;;;10.13;1.70;;;;;;;;;;5075467;28;20080;-73
2022/04/09 03:37:23;;;;;;;4.82;1.17;;;;;;;;;;5075401;28;20264;-73
2022/04/09 03:39:49;;;;;;;8.52;1.73;;;;;;;;;;5094093;28;20020;-73
2022/04/09 03:42:15;;;;;;;14.55;1.60;;;;;;;;;;5078599;28;20209;-73
2022/04/09 03:44:41;;;;;;;6.13;1.60;;;;;;;;;;5077580;28;20047;-73
2022/04/09 03:47:07;;;;;;;9.77;1.88;;;;;;;;;;5080677;28;20290;-73
2022/04/09 03:49:33;;;;;;;13.75;1.85;;;;;;;;;;5098803;28;20021;-74
2022/04/09 03:51:59;;;;;;;6.88;1.67;;;;;;;;;;5081234;28;20330;-73
2022/04/09 03:54:25;;;;;;;4.85;1.30;;;;;;;;;;5079814;28;20054;-73
2022/04/09 03:56:51;;;;;;;9.70;1.63;;;;;;;;;;5097683;28;20024;-74
2022/04/09 03:59:18;;;;;;;10.68;1.75;;;;;;;;;;5079940;28;20051;-74
2022/04/09 04:01:47;;;;;;;9.20;1.63;;;;;;;;;;5081475;28;20025;-73
2022/04/09 04:04:14;;;;;;;6.53;1.13;;;;;;;;;;5081210;28;20016;-74
2022/04/09 04:06:41;;;;;;;10.02;1.40;;;;;;;;;;5079175;28;20070;-73
2022/04/09 04:09:06;;;;;;;6.63;1.23;;;;;;;;;;5076744;28;20206;-74
2022/04/09 04:11:32;;;;;;;11.48;2.25;;;;;;;;;;5059383;28;20119;-74
2022/04/09 04:13:58;;;;;;;10.55;0.90;;;;;;;;;;5094612;28;20179;-73
2022/04/09 04:16:23;;;;;;;9.80;1.20;;;;;;;;;;5059390;28;20013;-73
2022/04/09 04:18:49;;;;;;;13.15;2.28;;;;;;;;;;5076325;28;20080;-74
2022/04/09 04:21:14;;;;;;;14.63;1.67;;;;;;;;;;5081760;28;20108;-74
2022/04/09 04:23:40;;;;;;;7.13;1.23;;;;;;;;;;5079811;28;20016;-73
2022/04/09 04:26:05;;;;;;;8.32;1.40;;;;;;;;;;5080291;28;20275;-73
2022/04/09 04:28:31;;;;;;;14.27;1.33;;;;;;;;;;5081888;28;20025;-75
2022/04/09 04:30:56;;;;;;;11.20;1.90;;;;;;;;;;5083049;28;20040;-74
2022/04/09 04:33:22;;;;;;;9.75;1.40;;;;;;;;;;5097439;28;20176;-74
2022/04/09 04:35:47;;;;;;;4.93;1.15;;;;;;;;;;5080477;28;20074;-73
2022/04/09 04:38:13;;;;;;;9.70;1.52;;;;;;;;;;5082887;28;20266;-73
2022/04/09 04:40:39;;;;;;;9.82;1.73;;;;;;;;;;5079473;28;20182;-74
2022/04/09 04:43:05;;;;;;;7.22;1.25;;;;;;;;;;5083058;28;20016;-74
2022/04/09 04:45:31;;;;;;;7.22;1.42;;;;;;;;;;5087091;28;20020;-74
2022/04/09 04:47:57;;;;;;;12.65;1.60;;;;;;;;;;5081317;28;20058;-74
2022/04/09 04:50:23;;;;;;;6.18;1.48;;;;;;;;;;5082119;28;20080;-73
2022/04/09 04:52:49;;;;;;;6.50;1.52;;;;;;;;;;5080373;28;20333;-74
2022/04/09 04:55:15;;;;;;;5.38;1.30;;;;;;;;;;5081485;28;20107;-73
2022/04/09 04:57:46;;;;;;;9.48;1.17;;;;;;;;;;5085477;28;20078;-73
2022/04/09 05:00:15;;;;;;;8.52;0.95;;;;;;;;;;5078861;28;20028;-74
2022/04/09 05:02:41;;;;;;;9.68;1.40;;;;;;;;;;5078385;28;20025;-74
2022/04/09 05:05:06;;;;;;;9.07;1.50;;;;;;;;;;5080141;28;20031;-73
2022/04/09 05:07:45;;;;;;;7.63;1.45;;;;;;;;;;5081843;28;20043;-74
2022/04/09 05:10:13;;;;;;;3.65;0.85;;;;;;;;;;5080776;28;20062;-73
2022/04/09 05:12:40;;;;;;;7.53;1.23;;;;;;;;;;5079655;28;20019;-74
2022/04/09 05:15:07;;;;;;;10.02;1.25;;;;;;;;;;5080665;28;20118;-74
2022/04/09 05:17:32;;;;;;;7.38;1.20;;;;;;;;;;5081658;28;20021;-73
2022/04/09 05:19:59;;;;;;;16.63;3.83;;;;;;;;;;5079725;28;20594;-74
2022/04/09 05:22:27;;;;;;;4.88;1.33;;;;;;;;;;5080386;28;20298;-73
2022/04/09 05:24:53;;;;;;;24.98;2.53;;;;;;;;;;5081350;28;20255;-73
2022/04/09 05:27:19;;;;;;;9.32;1.13;;;;;;;;;;5078661;28;20020;-73
2022/04/09 05:29:44;;;;;;;7.38;1.10;;;;;;;;;;5062660;28;20013;-72
2022/04/09 05:32:10;;;;;;;14.77;1.83;;;;;;;;;;5078169;28;20288;-73
2022/04/09 05:34:35;;;;;;;4.88;1.02;;;;;;;;;;5095623;28;20040;-73
2022/04/09 05:37:01;;;;;;;7.90;1.35;;;;;;;;;;5082715;28;20012;-73
2022/04/09 05:39:27;;;;;;;4.90;1.23;;;;;;;;;;5079793;28;20039;-73
2022/04/09 05:41:52;;;;;;;11.30;3.35;;;;;;;;;;5080171;28;20131;-73
2022/04/09 05:44:18;;;;;;;11.70;3.03;;;;;;;;;;5083016;28;20254;-74
2022/04/09 05:46:43;;;;;;;6.47;1.35;;;;;;;;;;5081557;28;20048;-73
2022/04/09 05:49:09;;;;;;;13.80;2.13;;;;;;;;;;5064270;28;20016;-73
2022/04/09 05:51:35;;;;;;;7.20;1.67;;;;;;;;;;5078697;28;20160;-73
2022/04/09 05:54:01;;;;;;;6.68;1.50;;;;;;;;;;5077669;28;20029;-73
2022/04/09 05:56:26;;;;;;;9.00;1.85;;;;;;;;;;5064110;28;20017;-73
2022/04/09 05:58:52;;;;;;;7.88;1.63;;;;;;;;;;5080361;28;20027;-73
2022/04/09 06:01:17;;;;;;;6.68;1.67;;;;;;;;;;5079165;28;20097;-73
2022/04/09 06:03:43;;;;;;;7.45;1.85;;;;;;;;;;5047872;28;20012;-73
2022/04/09 06:06:10;;;;;;;2.90;1.10;;;;;;;;;;5081803;28;20028;-73
2022/04/09 06:08:35;;;;;;;9.75;1.48;;;;;;;;;;5099542;28;20012;-73
2022/04/09 06:11:01;;;;;;;6.57;1.42;;;;;;;;;;5062086;28;20108;-73
2022/04/09 06:13:27;;;;;;;8.52;1.20;;;;;;;;;;5079903;28;20058;-72
2022/04/09 06:15:53;;;;;;;12.18;1.60;;;;;;;;;;5081151;28;20032;-72
2022/04/09 06:18:18;;;;;;;8.93;1.67;;;;;;;;;;5082516;28;20079;-72
2022/04/09 06:20:44;;;;;;;7.78;1.65;;;;;;;;;;5064526;28;20025;-72
2022/04/09 06:23:11;;;;;;;7.45;1.60;;;;;;;;;;5070093;28;20275;-75
2022/04/09 06:25:36;;;;;;;6.13;1.15;;;;;;;;;;5063033;28;20036;-75
2022/04/09 06:28:02;;;;;;;9.93;1.60;;;;;;;;;;5080252;28;20016;-75
2022/04/09 06:30:27;;;;;;;7.15;1.10;;;;;;;;;;5080386;28;20210;-73
2022/04/09 06:32:54;;;;;;;10.07;1.48;;;;;;;;;;5098209;28;20232;-73
2022/04/09 06:35:20;;;;;;;12.02;1.45;;;;;;;;;;5084151;28;20022;-73
2022/04/09 06:37:45;;;;;;;7.45;1.75;;;;;;;;;;5080937;28;20111;-72
2022/04/09 06:40:12;;;;;;;9.95;1.27;;;;;;;;;;5074532;28;20185;-74
2022/04/09 06:42:41;;;;;;;8.25;1.10;;;;;;;;;;5078185;28;20056;-73
2022/04/09 06:45:08;;;;;;;11.13;1.52;;;;;;;;;;5080049;28;20395;-75
2022/04/09 06:47:38;;;;;;;9.55;1.25;;;;;;;;;;5079615;28;20020;-75
2022/04/09 06:50:12;;;;;;;10.50;1.67;;;;;;;;;;5062622;28;20012;-75
2022/04/09 06:52:38;;;;;;;5.95;1.23;;;;;;;;;;5078709;28;20025;-75
2022/04/09 06:55:09;;;;;;;7.00;1.23;;;;;;;;;;5079328;28;20337;-75
2022/04/09 06:57:36;;;;;;;8.25;1.50;;;;;;;;;;5077832;28;20024;-75
2022/04/09 07:00:04;;;;;;;9.20;2.15;;;;;;;;;;5063679;28;20017;-75
2022/04/09 07:02:29;;;;;;;9.80;1.50;;;;;;;;;;5080210;28;20020;-74
2022/04/09 07:04:55;;;;;;;6.50;1.35;;;;;;;;;;5082112;28;20008;-76
2022/04/09 07:07:21;;;;;;;9.65;1.58;;;;;;;;;;5076553;28;20027;-75
2022/04/09 07:09:47;;;;;;;10.05;2.30;;;;;;;;;;5080651;28;20024;-75
2022/04/09 07:12:13;;;;;;;10.35;1.55;;;;;;;;;;5079501;28;20130;-74
2022/04/09 07:14:39;;;;;;;4.78;1.13;;;;;;;;;;5064828;28;20282;-74
2022/04/09 07:17:05;;;;;;;5.85;1.25;;;;;;;;;;5078858;28;20024;-74
2022/04/09 07:19:31;;;;;;;11.75;2.00;;;;;;;;;;5064848;28;20277;-74
2022/04/09 07:21:58;;;;;;;12.57;2.25;;;;;;;;;;5079764;28;20043;-74
2022/04/09 07:24:23;;;;;;;12.43;1.45;;;;;;;;;;5080921;28;20047;-75
2022/04/09 07:26:49;;;;;;;3.10;1.30;;;;;;;;;;5093495;28;20195;-74
2022/04/09 07:29:15;;;;;;;8.00;1.70;;;;;;;;;;5083774;28;20024;-75
2022/04/09 07:31:41;;;;;;;12.23;1.60;;;;;;;;;;5084630;28;20028;-74
2022/04/09 07:34:06;;;;;;;6.63;1.90;;;;;;;;;;5081451;28;20365;-74
2022/04/09 07:36:32;;;;;;;7.60;1.48;;;;;;;;;;5095196;28;20019;-74
2022/04/09 07:38:57;;;;;;;13.02;1.80;;;;;;;;;;5092728;28;20020;-74
2022/04/09 07:41:23;;;;;;;5.93;2.17;;;;;;;;;;5077770;28;20024;-74
2022/04/09 07:43:48;;;;;;;14.65;2.60;;;;;;;;;;5081123;28;20020;-73
2022/04/09 07:46:14;;;;;;;9.50;1.75;;;;;;;;;;5081205;28;20028;-74
2022/04/09 07:48:39;;;;;;;5.13;1.55;;;;;;;;;;5096732;28;20065;-73
2022/04/09 07:51:05;;;;;;;6.28;1.73;;;;;;;;;;5072162;28;20017;-73
2022/04/09 07:53:31;;;;;;;7.45;1.35;;;;;;;;;;5079232;28;20016;-74
2022/04/09 07:55:56;;;;;;;6.82;1.75;;;;;;;;;;5073967;28;20031;-72
2022/04/09 07:58:22;;;;;;;6.47;1.42;;;;;;;;;;5059057;28;20025;-73
2022/04/09 08:00:49;;;;;;;6.82;1.40;;;;;;;;;;5068232;28;20027;-75
2022/04/09 08:03:15;;;;;;;3.95;1.27;;;;;;;;;;5088003;28;20005;-74
2022/04/09 08:05:41;;;;;;;5.60;1.48;;;;;;;;;;5083653;28;20012;-73
2022/04/09 08:08:07;;;;;;;5.65;1.42;;;;;;;;;;5086509;28;20020;-74
2022/04/09 08:10:34;;;;;;;11.10;2.63;;;;;;;;;;5080993;28;20023;-75
2022/04/09 08:13:00;;;;;;;3.67;1.17;;;;;;;;;;5086817;28;20034;-74
2022/04/09 08:15:25;;;;;;;6.82;1.48;;;;;;;;;;5070510;28;20024;-74
2022/04/09 08:17:54;;;;;;;11.32;2.67;;;;;;;;;;5084539;28;20044;-75
2022/04/09 08:20:20;;;;;;;6.75;1.48;;;;;;;;;;5071432;28;20028;-74
2022/04/09 08:22:47;;;;;;;9.10;1.70;;;;;;;;;;5091490;28;20042;-74
2022/04/09 08:25:13;;;;;;;14.95;1.83;;;;;;;;;;5086125;28;20019;-74
2022/04/09 08:27:38;;;;;;;6.10;1.60;;;;;;;;;;5085256;28;20259;-74
2022/04/09 08:30:06;;;;;;;7.22;2.03;;;;;;;;;;5069807;28;20032;-74
2022/04/09 08:32:32;;;;;;;5.95;1.55;;;;;;;;;;5093663;28;20142;-74
2022/04/09 08:34:58;;;;;;;7.05;1.58;;;;;;;;;;5100277;28;20078;-74
2022/04/09 08:37:24;;;;;;;6.05;1.50;;;;;;;;;;5092434;28;20203;-74
2022/04/09 08:39:54;;;;;;;8.35;1.90;;;;;;;;;;5088466;28;20350;-74
2022/04/09 08:42:21;;;;;;;5.22;1.52;;;;;;;;;;5088980;28;20167;-75
2022/04/09 08:44:48;;;;;;;5.18;1.25;;;;;;;;;;5082152;28;20326;-74
2022/04/09 08:47:15;;;;;;;5.80;1.33;;;;;;;;;;5087352;28;20038;-74
2022/04/09 08:49:48;;;;;;;12.75;1.90;;;;;;;;;;5091589;28;20028;-73
2022/04/09 08:52:14;;;;;;;;;;;;;;;;;;5068363;28;20097;-74
2022/04/09 08:54:43;;;;;;;7.47;1.80;;;;;;;;;;5089331;28;19908;-75
2022/04/09 08:57:09;;;;;;;7.10;1.30;;;;;;;;;;5088496;28;20081;-75
2022/04/09 08:59:35;;;;;;;5.45;1.20;;;;;;;;;;5092083;28;20008;-74
2022/04/09 09:02:01;;;;;;;5.28;1.25;;;;;;;;;;5087468;28;20023;-75
2022/04/09 09:04:26;;;;;;;7.53;1.10;;;;;;;;;;5070641;28;20021;-74
2022/04/09 09:06:52;;;;;;;9.18;1.50;;;;;;;;;;5055880;28;20025;-74
2022/04/09 09:09:44;;;;;;;9.82;1.80;;;;;;;;;;5085123;28;20027;-74
2022/04/09 09:12:12;;;;;;;13.80;1.75;;;;;;;;;;5079304;28;20025;-75
2022/04/09 09:14:43;;;;;;;6.15;1.30;;;;;;;;;;5087916;28;20289;-75
2022/04/09 09:17:09;;;;;;;10.25;1.65;;;;;;;;;;5080798;28;20032;-74
2022/04/09 09:19:48;;;;;;;5.88;1.30;;;;;;;;;;5084690;28;20050;-74
2022/04/09 09:22:15;;;;;;;6.10;1.67;;;;;;;;;;5084704;28;20060;-73
2022/04/09 09:24:41;;;;;;;7.28;0.90;;;;;;;;;;5097619;28;20032;-74
2022/04/09 09:27:07;;;;;;;5.25;1.25;;;;;;;;;;5066617;28;20027;-73
2022/04/09 09:29:33;;;;;;;4.65;1.35;;;;;;;;;;5085221;28;20016;-74
2022/04/09 09:32:01;;;;;;;12.90;1.65;;;;;;;;;;5076644;28;20047;-74
2022/04/09 09:34:28;;;;;;;11.18;0.93;;;;;;;;;;5084515;28;20402;-74
2022/04/09 09:36:54;;;;;;;4.95;1.60;;;;;;;;;;5071353;28;20052;-75
2022/04/09 09:39:22;;;;;;;5.65;0.88;;;;;;;;;;5084699;28;20012;-74
2022/04/09 09:41:56;;;;;;;7.05;1.70;;;;;;;;;;5081238;28;20025;-75
2022/04/09 09:44:26;;;;;;;3.50;1.30;;;;;;;;;;5079256;28;20009;-75
2022/04/09 09:46:55;;;;;;;7.13;1.65;;;;;;;;;;5082940;28;20032;-74
2022/04/09 09:49:23;;;;;;;8.95;1.40;;;;;;;;;;5085974;28;20040;-75
2022/04/09 09:52:02;;;;;;;9.40;1.75;;;;;;;;;;5082713;28;20232;-74
2022/04/09 09:54:28;;;;;;;3.13;0.80;;;;;;;;;;5088052;28;20009;-75
2022/04/09 09:56:55;;;;;;;4.07;1.27;;;;;;;;;;5082683;28;20366;-74
2022/04/09 09:59:22;;;;;;;6.03;1.50;;;;;;;;;;5065995;28;20028;-75
2022/04/09 10:01:51;;;;;;;5.93;1.00;;;;;;;;;;5085092;28;20034;-75
2022/04/09 10:04:17;;;;;;;4.82;0.73;;;;;;;;;;5082437;28;20188;-74
2022/04/09 10:06:43;;;;;;;7.95;1.70;;;;;;;;;;5084691;28;20027;-74
2022/04/09 10:09:11;;;;;;;4.20;1.40;;;;;;;;;;5099295;28;20034;-74
2022/04/09 10:11:46;;;;;;;3.60;0.73;;;;;;;;;;5081904;28;20028;-75
2022/04/09 10:14:14;;;;;;;6.55;0.82;;;;;;;;;;5080372;28;20008;-73
2022/04/09 10:16:43;;;;;;;11.10;1.00;;;;;;;;;;5078510;28;20096;-74
2022/04/09 10:19:11;;;;;;;7.93;1.42;;;;;;;;;;5079017;28;20040;-74
2022/04/09 10:21:40;;;;;;;2.15;0.73;;;;;;;;;;5079367;28;20064;-74
2022/04/09 10:24:14;;;;;;;5.88;1.10;;;;;;;;;;5071976;28;20028;-75
2022/04/09 10:26:41;;;;;;;6.47;0.95;;;;;;;;;;5081494;28;20055;-75
2022/04/09 10:29:08;;;;;;;3.90;1.10;;;;;;;;;;5083291;28;20064;-75
2022/04/09 10:31:51;;;;;;;5.10;0.77;;;;;;;;;;5083331;28;20266;-73
2022/04/09 10:34:17;;;;;;;5.90;0.93;;;;;;;;;;5082938;28;20016;-73
2022/04/09 10:36:43;;;;;;;7.30;0.90;;;;;;;;;;5088140;28;20040;-74
2022/04/09 10:39:36;;;;;;;6.65;1.00;;;;;;;;;;5084946;28;20025;-74
2022/04/09 10:42:02;;;;;;;5.65;1.00;;;;;;;;;;5085033;28;20015;-73
2022/04/09 10:44:44;;;;;;;4.82;0.90;;;;;;;;;;5078373;28;20016;-73
2022/04/09 10:47:14;;;;;;;3.83;0.68;;;;;;;;;;5097575;28;20022;-73
2022/04/09 10:49:41;;;;;;;3.67;0.68;;;;;;;;;;5083142;28;20012;-73
2022/04/09 10:52:11;;;;;;;9.90;0.90;;;;;;;;;;5095130;28;20024;-72
2022/04/09 10:54:39;;;;;;;2.92;0.80;;;;;;;;;;5087771;28;20024;-73
2022/04/09 10:57:21;;;;;;;6.22;0.52;;;;;;;;;;5078144;28;20266;-73
2022/04/09 10:59:58;;;;;;;3.30;0.60;;;;;;;;;;5082201;28;20042;-72
2022/04/09 11:02:25;;;;;;;5.78;0.47;;;;;;;;;;5094413;28;20348;-75
2022/04/09 11:04:52;;;;;;;4.35;0.70;;;;;;;;;;5082351;28;20028;-74
2022/04/09 11:07:17;;;;;;;4.85;0.50;;;;;;;;;;5078160;28;20088;-74
2022/04/09 11:09:52;;;;;;;8.48;0.93;;;;;;;;;;5080965;28;20019;-74
2022/04/09 11:12:24;;;;;;;3.83;0.57;;;;;;;;;;5081673;28;20057;-75
2022/04/09 11:14:52;;;;;;;4.10;0.50;;;;;;;;;;5100893;28;20027;-74
2022/04/09 11:17:28;;;;;;;3.70;0.70;;;;;;;;;;5082241;28;20016;-74
2022/04/09 11:19:56;;;;;;;3.05;0.63;;;;;;;;;;5079922;28;20029;-73
2022/04/09 11:22:29;;;;;;;6.30;0.32;;;;;;;;;;5079801;28;20077;-74
2022/04/09 11:24:54;;;;;;;1.77;0.22;;;;;;;;;;5080065;28;20013;-73
2022/04/09 11:27:20;;;;;;;3.55;0.50;;;;;;;;;;5070458;28;20043;-73
2022/04/09 11:29:45;;;;;;;1.38;0.20;;;;;;;;;;5085637;28;20031;-74
2022/04/09 11:32:19;;;;;;;4.70;0.65;;;;;;;;;;5078972;28;20069;-73
2022/04/09 11:34:50;;;;;;;3.45;0.32;;;;;;;;;;5088673;28;20028;-73
2022/04/09 11:37:15;;;;;;;3.67;0.60;;;;;;;;;;5080561;28;20031;-73
2022/04/09 11:39:44;;;;;;;2.20;0.43;;;;;;;;;;5076001;28;20032;-74
2022/04/09 11:42:10;;;;;;;6.07;0.60;;;;;;;;;;5081707;28;20020;-74
2022/04/09 11:44:38;;;;;;;4.47;0.70;;;;;;;;;;5084339;28;20016;-73
2022/04/09 11:47:09;;;;;;;1.67;0.25;;;;;;;;;;5084575;28;20013;-73
2022/04/09 11:49:35;;;;;;;4.65;0.45;;;;;;;;;;5082947;28;20080;-75
2022/04/09 11:52:00;;;;;;;4.65;0.68;;;;;;;;;;5058720;28;20027;-76
2022/04/09 11:54:30;;;;;;;1.35;0.45;;;;;;;;;;5083882;28;20028;-75
2022/04/09 11:56:56;;;;;;;3.08;0.70;;;;;;;;;;5084744;28;20017;-75
2022/04/09 11:59:22;;;;;;;2.53;0.40;;;;;;;;;;5077116;28;20090;-75
2022/04/09 12:01:48;;;;;;;3.80;0.88;;;;;;;;;;5081242;28;20032;-75
2022/04/09 12:04:14;;;;;;;2.70;0.88;;;;;;;;;;5084211;28;20099;-75
2022/04/09 12:06:40;;;;;;;4.38;0.60;;;;;;;;;;5079072;28;20017;-74
2022/04/09 12:09:06;;;;;;;2.92;0.57;;;;;;;;;;5084579;28;20025;-74
2022/04/09 12:11:32;;;;;;;5.60;0.77;;;;;;;;;;5073331;28;20023;-74
2022/04/09 12:14:13;;;;;;;5.03;0.47;;;;;;;;;;5077907;28;20025;-73
2022/04/09 12:16:39;;;;;;;1.60;0.60;;;;;;;;;;5080741;28;20187;-73
2022/04/09 12:19:06;;;;;;;4.35;0.70;;;;;;;;;;5078148;28;20333;-74
2022/04/09 12:21:34;;;;;;;2.28;0.75;;;;;;;;;;5078591;28;20111;-74
2022/04/09 12:24:09;;;;;;;7.25;1.17;;;;;;;;;;5077925;28;20019;-73
2022/04/09 12:26:38;;;;;;;7.45;0.80;;;;;;;;;;5067455;28;20024;-75
2022/04/09 12:29:14;;;;;;;2.67;0.50;;;;;;;;;;5078272;28;20012;-77
2022/04/09 12:31:40;;;;;;;3.13;0.50;;;;;;;;;;5078813;28;20241;-76
2022/04/09 12:34:06;;;;;;;2.67;0.50;;;;;;;;;;5081440;28;20028;-75
2022/04/09 12:36:32;;;;;;;3.33;0.77;;;;;;;;;;5103091;28;20011;-74
2022/04/09 12:39:00;;;;;;;3.50;0.55;;;;;;;;;;5086006;28;20076;-74
2022/04/09 12:41:26;;;;;;;4.45;0.63;;;;;;;;;;5066708;28;20344;-74
2022/04/09 12:43:52;;;;;;;3.83;0.40;;;;;;;;;;5085420;28;20017;-74
2022/04/09 12:46:19;;;;;;;4.53;0.73;;;;;;;;;;5080004;28;20031;-73
2022/04/09 12:48:49;;;;;;;3.58;0.45;;;;;;;;;;5083872;28;20012;-74
2022/04/09 12:51:20;;;;;;;1.90;0.57;;;;;;;;;;5076456;28;20100;-74
2022/04/09 12:53:55;;;;;;;4.25;0.70;;;;;;;;;;5086456;28;20046;-73
2022/04/09 12:56:20;;;;;;;4.80;0.57;;;;;;;;;;5078641;28;20027;-73
2022/04/09 12:58:46;;;;;;;2.88;0.60;;;;;;;;;;5080119;28;20076;-75
2022/04/09 13:01:17;;;;;;;4.07;0.70;;;;;;;;;;5082058;28;20051;-76
2022/04/09 13:03:43;;;;;;;1.75;0.60;;;;;;;;;;5067300;28;20016;-73
2022/04/09 13:06:08;;;;;;;3.80;0.90;;;;;;;;;;5085260;28;20022;-72
2022/04/09 13:08:34;;;;;;;2.50;0.43;;;;;;;;;;5096945;28;20283;-73
2022/04/09 13:11:01;;;;;;;3.20;0.45;;;;;;;;;;5079715;28;20061;-74
2022/04/09 13:13:26;;;;;;;5.35;0.80;;;;;;;;;;5082356;28;20036;-74
2022/04/09 13:15:52;;;;;;;5.30;0.95;;;;;;;;;;5083088;28;20325;-74
2022/04/09 13:18:18;;;;;;;1.88;0.47;;;;;;;;;;5080573;28;20123;-73
2022/04/09 13:20:44;;;;;;;3.45;0.85;;;;;;;;;;5097224;28;20023;-76
2022/04/09 13:23:10;;;;;;;2.08;0.32;;;;;;;;;;5081743;28;20015;-74
2022/04/09 13:25:36;;;;;;;6.88;0.80;;;;;;;;;;5063318;28;20082;-74
2022/04/09 13:28:02;;;;;;;2.88;0.60;;;;;;;;;;5066739;28;20027;-73
2022/04/09 13:30:28;;;;;;;1.23;0.45;;;;;;;;;;5080053;28;20427;-73
2022/04/09 13:32:54;;;;;;;3.83;0.57;;;;;;;;;;5083799;28;20047;-74
2022/04/09 13:35:23;;;;;;;3.28;0.55;;;;;;;;;;5081107;28;20102;-73
2022/04/09 13:37:52;;;;;;;1.98;0.70;;;;;;;;;;5083217;28;20016;-72
2022/04/09 13:40:18;;;;;;;9.25;0.57;;;;;;;;;;5079665;28;20224;-73
2022/04/09 13:42:44;;;;;;;1.23;0.40;;;;;;;;;;5080632;28;20031;-75
2022/04/09 13:45:11;;;;;;;6.18;0.50;;;;;;;;;;5079394;28;20024;-74
2022/04/09 13:47:37;;;;;;;4.75;0.40;;;;;;;;;;5081133;28;20020;-74
2022/04/09 13:50:03;;;;;;;2.20;0.40;;;;;;;;;;5087644;28;20022;-75
2022/04/09 13:52:29;;;;;;;1.85;0.30;;;;;;;;;;5080314;28;20013;-75
2022/04/09 13:54:55;;;;;;;3.97;0.43;;;;;;;;;;5086298;28;20039;-75
2022/04/09 13:57:21;;;;;;;5.85;0.68;;;;;;;;;;5081702;28;20269;-75
2022/04/09 13:59:46;;;;;;;6.43;0.43;;;;;;;;;;5078502;28;20032;-74
2022/04/09 14:02:12;;;;;;;5.15;1.23;;;;;;;;;;5079196;28;20092;-75
2022/04/09 14:04:37;;;;;;;3.00;0.52;;;;;;;;;;5084506;28;20090;-74
2022/04/09 14:07:03;;;;;;;1.98;0.73;;;;;;;;;;5087207;28;20278;-75
2022/04/09 14:09:29;;;;;;;3.55;0.75;;;;;;;;;;5076105;28;20191;-75
2022/04/09 14:11:54;;;;;;;2.95;0.70;;;;;;;;;;5061151;28;20025;-74
2022/04/09 14:14:20;;;;;;;4.05;0.60;;;;;;;;;;5075999;28;22752;-75
2022/04/09 14:16:47;;;;;;;3.08;0.73;;;;;;;;;;5075202;28;20097;-74
2022/04/09 14:19:13;;;;;;;4.63;1.00;;;;;;;;;;5067172;28;20020;-74
2022/04/09 14:21:38;;;;;;;4.80;0.80;;;;;;;;;;5064294;28;20066;-75
2022/04/09 14:24:04;;;;;;;5.45;0.60;;;;;;;;;;5080023;28;20012;-75
2022/04/09 14:26:30;;;;;;;4.18;0.68;;;;;;;;;;5088495;28;20020;-75
2022/04/09 14:28:58;;;;;;;3.63;0.80;;;;;;;;;;5079873;28;20028;-75
2022/04/09 14:31:25;;;;;;;3.65;0.60;;;;;;;;;;5067369;28;20274;-75
2022/04/09 14:33:51;;;;;;;2.65;0.55;;;;;;;;;;5092907;28;20050;-75
2022/04/09 14:36:16;;;;;;;7.55;0.60;;;;;;;;;;5098680;28;20078;-75
2022/04/09 14:38:42;;;;;;;3.75;0.80;;;;;;;;;;5082519;28;20039;-75